createdAt,value
2017-08-01T00:01:34.195Z,21.74
2017-08-01T00:04:03.292Z,21.73
2017-08-01T00:06:32.339Z,21.69
2017-08-01T00:09:01.392Z,21.68
2017-08-01T00:11:31.220Z,21.62
2017-08-01T00:14:00.287Z,21.56
2017-08-01T00:16:29.323Z,21.51
2017-08-01T00:18:58.387Z,21.37
2017-08-01T00:21:28.208Z,21.31
2017-08-01T00:23:58.044Z,21.21
2017-08-01T00:26:27.104Z,21.17
2017-08-01T00:28:56.160Z,21.07
2017-08-01T00:31:25.277Z,21.02
2017-08-01T00:33:54.328Z,20.97
2017-08-01T00:36:23.390Z,20.88
2017-08-01T00:38:53.210Z,20.92
2017-08-01T00:41:22.285Z,20.89
2017-08-01T00:43:51.318Z,20.88
2017-08-01T00:46:20.389Z,20.89
2017-08-01T00:48:50.247Z,20.66
2017-08-01T00:51:19.316Z,20.39
2017-08-01T00:53:48.428Z,20.19
2017-08-01T00:56:17.463Z,20.33
2017-08-01T00:58:46.525Z,20.43
2017-08-01T01:01:15.616Z,20.52
2017-08-01T01:03:44.685Z,20.59
2017-08-01T01:06:14.507Z,20.64
2017-08-01T01:08:43.570Z,20.70
2017-08-01T01:11:12.777Z,20.69
2017-08-01T01:13:41.795Z,20.70
2017-08-01T01:16:10.908Z,20.72
2017-08-01T01:18:40.215Z,20.74
2017-08-01T01:21:09.279Z,20.67
2017-08-01T01:23:38.331Z,20.68
2017-08-01T01:26:07.400Z,20.70
2017-08-01T01:28:36.452Z,20.68
2017-08-01T01:31:05.495Z,20.64
2017-08-01T01:33:34.536Z,20.68
2017-08-01T01:36:04.381Z,20.63
2017-08-01T01:38:33.435Z,20.58
2017-08-01T01:41:03.267Z,20.59
2017-08-01T01:43:32.332Z,20.56
2017-08-01T01:46:01.406Z,20.60
2017-08-01T01:48:30.441Z,20.57
2017-08-01T01:51:00.276Z,20.56
2017-08-01T01:53:29.341Z,20.51
2017-08-01T01:55:59.159Z,20.49
2017-08-01T01:58:28.993Z,20.50
2017-08-01T02:00:58.103Z,20.50
2017-08-01T02:03:27.139Z,20.51
2017-08-01T02:05:56.236Z,20.55
2017-08-01T02:08:25.300Z,20.56
2017-08-01T02:10:54.364Z,20.58
2017-08-01T02:13:23.421Z,20.56
2017-08-01T02:15:52.502Z,20.48
2017-08-01T02:18:21.539Z,20.49
2017-08-01T02:20:50.629Z,20.51
2017-08-01T02:23:20.432Z,20.50
2017-08-01T02:25:50.264Z,20.50
2017-08-01T02:28:19.341Z,20.51
2017-08-01T02:30:49.165Z,20.53
2017-08-01T02:33:18.223Z,20.53
2017-08-01T02:35:47.267Z,20.59
2017-08-01T02:38:16.556Z,20.57
2017-08-01T02:40:45.661Z,20.55
2017-08-01T02:43:14.896Z,20.51
2017-08-01T02:45:43.952Z,20.45
2017-08-01T02:48:13.396Z,20.39
2017-08-01T02:50:42.472Z,20.38
2017-08-01T02:53:11.522Z,20.40
2017-08-01T02:55:40.588Z,20.39
2017-08-01T02:58:09.667Z,20.37
2017-08-01T03:00:38.704Z,20.36
2017-08-01T03:03:07.804Z,20.35
2017-08-01T03:05:37.076Z,20.33
2017-08-01T03:08:06.119Z,20.35
2017-08-01T03:10:35.188Z,20.34
2017-08-01T03:13:04.308Z,20.32
2017-08-01T03:15:33.359Z,20.32
2017-08-01T03:18:02.395Z,20.29
2017-08-01T03:20:31.484Z,20.28
2017-08-01T03:23:00.531Z,20.31
2017-08-01T03:25:29.619Z,20.33
2017-08-01T03:27:58.682Z,20.34
2017-08-01T03:30:27.871Z,20.33
2017-08-01T03:32:56.924Z,20.35
2017-08-01T03:35:25.978Z,20.31
2017-08-01T03:37:55.048Z,20.26
2017-08-01T03:40:24.140Z,20.29
2017-08-01T03:42:53.171Z,20.26
2017-08-01T03:45:22.240Z,20.27
2017-08-01T03:47:51.308Z,20.26
2017-08-01T03:50:20.372Z,20.28
2017-08-01T03:52:49.418Z,20.29
2017-08-01T03:55:18.492Z,20.30
2017-08-01T03:57:47.562Z,20.33
2017-08-01T04:00:16.617Z,20.28
2017-08-01T04:02:45.676Z,20.28
2017-08-01T04:05:14.711Z,20.31
2017-08-01T04:07:43.835Z,20.31
2017-08-01T04:10:12.923Z,20.33
2017-08-01T04:12:41.968Z,20.34
2017-08-01T04:15:11.148Z,20.36
2017-08-01T04:17:40.197Z,20.36
2017-08-01T04:20:09.266Z,20.41
2017-08-01T04:22:38.319Z,20.44
2017-08-01T04:25:07.378Z,20.42
2017-08-01T04:27:36.525Z,20.40
2017-08-01T04:30:05.605Z,20.42
2017-08-01T04:32:34.699Z,20.38
2017-08-01T04:35:03.762Z,20.40
2017-08-01T04:37:32.880Z,20.35
2017-08-01T04:40:01.927Z,20.34
2017-08-01T04:42:31.011Z,20.34
2017-08-01T04:45:05.531Z,20.31
2017-08-01T04:47:34.595Z,20.37
2017-08-01T04:50:03.691Z,20.40
2017-08-01T04:52:32.717Z,20.45
2017-08-01T04:55:01.775Z,20.51
2017-08-01T04:57:30.817Z,20.56
2017-08-01T04:59:59.887Z,20.61
2017-08-01T05:02:28.928Z,20.61
2017-08-01T05:04:57.980Z,20.61
2017-08-01T05:07:27.039Z,20.63
2017-08-01T05:09:56.095Z,20.61
2017-08-01T05:12:25.179Z,20.57
2017-08-01T05:14:54.223Z,20.44
2017-08-01T05:17:23.336Z,20.51
2017-08-01T05:19:52.396Z,20.63
2017-08-01T05:22:21.547Z,20.65
2017-08-01T05:24:50.604Z,20.70
2017-08-01T05:27:19.662Z,20.73
2017-08-01T05:29:48.750Z,20.74
2017-08-01T05:32:17.825Z,20.77
2017-08-01T05:34:46.868Z,20.83
2017-08-01T05:37:16.075Z,20.84
2017-08-01T05:39:45.100Z,20.84
2017-08-01T05:42:14.147Z,20.94
2017-08-01T05:44:43.206Z,21.06
2017-08-01T05:47:12.301Z,21.13
2017-08-01T05:49:41.364Z,21.24
2017-08-01T05:52:10.433Z,21.34
2017-08-01T05:54:39.499Z,21.45
2017-08-01T05:57:08.572Z,21.54
2017-08-01T05:59:37.671Z,21.58
2017-08-01T06:02:06.735Z,21.56
2017-08-01T06:04:35.791Z,21.69
2017-08-01T06:07:05.074Z,21.82
2017-08-01T06:09:34.205Z,21.82
2017-08-01T06:12:03.376Z,21.80
2017-08-01T06:14:32.434Z,21.95
2017-08-01T06:17:01.477Z,22.12
2017-08-01T06:19:30.516Z,22.25
2017-08-01T06:21:59.639Z,22.40
2017-08-01T06:24:28.684Z,22.53
2017-08-01T06:26:57.735Z,22.67
2017-08-01T06:29:26.811Z,22.79
2017-08-01T06:31:55.855Z,22.85
2017-08-01T06:34:25.144Z,22.94
2017-08-01T06:36:54.203Z,23.03
2017-08-01T06:39:23.268Z,23.11
2017-08-01T06:41:52.348Z,23.11
2017-08-01T06:44:21.463Z,23.13
2017-08-01T06:46:50.520Z,23.13
2017-08-01T06:49:19.587Z,23.16
2017-08-01T06:51:48.756Z,23.20
2017-08-01T06:54:17.804Z,23.25
2017-08-01T06:56:46.876Z,23.25
2017-08-01T06:59:15.928Z,23.32
2017-08-01T07:01:45.195Z,23.35
2017-08-01T07:04:14.288Z,23.43
2017-08-01T07:06:43.308Z,23.54
2017-08-01T07:09:12.366Z,23.53
2017-08-01T07:11:41.408Z,23.54
2017-08-01T07:14:10.481Z,23.57
2017-08-01T07:16:39.548Z,23.65
2017-08-01T07:19:08.591Z,23.68
2017-08-01T07:21:37.662Z,23.70
2017-08-01T07:24:06.732Z,23.80
2017-08-01T07:26:35.810Z,23.86
2017-08-01T07:29:04.892Z,23.91
2017-08-01T07:31:33.916Z,23.96
2017-08-01T07:34:03.014Z,23.92
2017-08-01T07:36:32.060Z,23.91
2017-08-01T07:39:01.115Z,23.91
2017-08-01T07:41:30.167Z,23.96
2017-08-01T07:43:59.248Z,23.96
2017-08-01T07:46:28.360Z,23.92
2017-08-01T07:48:57.386Z,23.95
2017-08-01T07:51:26.458Z,24.05
2017-08-01T07:53:55.519Z,24.11
2017-08-01T07:56:24.584Z,24.11
2017-08-01T07:58:53.628Z,24.22
2017-08-01T08:01:22.700Z,24.30
2017-08-01T08:03:51.791Z,24.25
2017-08-01T08:06:20.852Z,24.22
2017-08-01T08:08:49.940Z,24.25
2017-08-01T08:11:18.995Z,24.20
2017-08-01T08:13:48.051Z,24.26
2017-08-01T08:16:17.126Z,24.31
2017-08-01T08:18:46.169Z,24.33
2017-08-01T08:21:15.232Z,24.40
2017-08-01T08:23:44.323Z,24.42
2017-08-01T08:26:13.391Z,24.45
2017-08-01T08:28:42.437Z,24.45
2017-08-01T08:31:11.545Z,24.41
2017-08-01T08:33:40.586Z,24.26
2017-08-01T08:36:09.627Z,24.23
2017-08-01T08:38:38.700Z,24.21
2017-08-01T08:41:07.807Z,24.17
2017-08-01T08:43:36.943Z,24.21
2017-08-01T08:46:06.035Z,24.27
2017-08-01T08:48:35.077Z,24.28
2017-08-01T08:51:04.167Z,24.29
2017-08-01T08:53:33.199Z,24.31
2017-08-01T08:56:02.293Z,24.32
2017-08-01T08:58:31.356Z,24.23
2017-08-01T09:01:00.407Z,24.19
2017-08-01T09:03:29.453Z,24.06
2017-08-01T09:05:58.524Z,23.93
2017-08-01T09:08:27.631Z,23.78
2017-08-01T09:10:56.987Z,23.72
2017-08-01T09:13:26.040Z,23.69
2017-08-01T09:15:55.102Z,23.67
2017-08-01T09:18:24.148Z,23.65
2017-08-01T09:20:53.215Z,23.52
2017-08-01T09:23:22.320Z,23.49
2017-08-01T09:25:51.361Z,23.39
2017-08-01T09:28:20.440Z,23.28
2017-08-01T09:30:49.500Z,23.27
2017-08-01T09:33:18.550Z,23.36
2017-08-01T09:35:47.624Z,23.44
2017-08-01T09:38:16.668Z,23.48
2017-08-01T09:40:45.760Z,23.51
2017-08-01T09:43:14.822Z,23.45
2017-08-01T09:45:43.877Z,23.42
2017-08-01T09:48:12.997Z,23.43
2017-08-01T09:50:42.099Z,23.38
2017-08-01T09:53:11.186Z,23.41
2017-08-01T09:55:40.486Z,23.45
2017-08-01T09:58:09.696Z,23.47
2017-08-01T10:00:38.744Z,23.58
2017-08-01T10:03:07.820Z,23.68
2017-08-01T10:05:36.876Z,23.83
2017-08-01T10:08:05.976Z,23.92
2017-08-01T10:10:35.043Z,23.95
2017-08-01T10:13:04.121Z,23.99
2017-08-01T10:15:33.168Z,23.89
2017-08-01T10:18:02.253Z,24.02
2017-08-01T10:20:31.319Z,24.17
2017-08-01T10:23:00.460Z,24.41
2017-08-01T10:25:29.515Z,24.67
2017-08-01T10:27:58.599Z,24.96
2017-08-01T10:30:27.664Z,25.10
2017-08-01T10:32:56.722Z,25.14
2017-08-01T10:35:25.800Z,25.12
2017-08-01T10:37:54.863Z,25.05
2017-08-01T10:40:24.042Z,25.07
2017-08-01T10:42:53.104Z,25.32
2017-08-01T10:45:22.152Z,25.32
2017-08-01T10:47:51.239Z,25.40
2017-08-01T10:50:20.284Z,25.47
2017-08-01T10:52:49.347Z,25.41
2017-08-01T10:55:18.457Z,25.35
2017-08-01T10:57:47.519Z,25.29
2017-08-01T11:00:16.590Z,25.36
2017-08-01T11:02:45.856Z,25.34
2017-08-01T11:05:14.938Z,25.31
2017-08-01T11:07:43.994Z,25.23
2017-08-01T11:10:13.056Z,25.24
2017-08-01T11:12:42.132Z,25.39
2017-08-01T11:15:11.200Z,25.52
2017-08-01T11:17:40.279Z,25.61
2017-08-01T11:20:09.410Z,25.66
2017-08-01T11:22:38.453Z,25.55
2017-08-01T11:25:07.542Z,25.52
2017-08-01T11:27:36.612Z,25.60
2017-08-01T11:30:05.699Z,25.60
2017-08-01T11:32:34.755Z,25.57
2017-08-01T11:35:03.823Z,25.46
2017-08-01T11:37:32.880Z,25.36
2017-08-01T11:40:01.927Z,25.40
2017-08-01T11:42:30.974Z,25.36
2017-08-01T11:45:00.061Z,25.36
2017-08-01T11:47:29.118Z,25.33
2017-08-01T11:49:58.185Z,25.32
2017-08-01T11:52:27.278Z,25.22
2017-08-01T11:54:56.318Z,25.16
2017-08-01T11:57:25.376Z,25.09
2017-08-01T11:59:54.480Z,25.09
2017-08-01T12:02:23.527Z,25.02
2017-08-01T12:04:52.593Z,25.00
2017-08-01T12:07:21.685Z,25.00
2017-08-01T12:09:50.745Z,24.96
2017-08-01T12:12:19.857Z,24.89
2017-08-01T12:14:48.901Z,24.86
2017-08-01T12:17:18.014Z,24.74
2017-08-01T12:19:47.088Z,24.73
2017-08-01T12:22:16.176Z,24.72
2017-08-01T12:24:46.531Z,24.62
2017-08-01T12:27:15.668Z,24.58
2017-08-01T12:29:44.711Z,24.57
2017-08-01T12:32:13.844Z,24.52
2017-08-01T12:34:42.960Z,24.36
2017-08-01T12:37:12.021Z,24.25
2017-08-01T12:39:41.079Z,24.29
2017-08-01T12:42:10.156Z,24.32
2017-08-01T12:44:39.279Z,24.31
2017-08-01T12:47:08.359Z,24.30
2017-08-01T12:49:37.419Z,24.23
2017-08-01T12:52:06.479Z,24.20
2017-08-01T12:54:35.567Z,24.25
2017-08-01T12:57:04.907Z,24.33
2017-08-01T12:59:34.288Z,24.44
2017-08-01T13:02:03.408Z,24.53
2017-08-01T13:04:32.436Z,24.63
2017-08-01T13:07:01.520Z,24.66
2017-08-01T13:09:30.561Z,24.59
2017-08-01T13:11:59.634Z,24.54
2017-08-01T13:14:28.724Z,24.43
2017-08-01T13:16:57.796Z,24.42
2017-08-01T13:19:26.832Z,24.54
2017-08-01T13:21:55.920Z,24.63
2017-08-01T13:24:24.970Z,24.69
2017-08-01T13:26:54.034Z,24.61
2017-08-01T13:29:23.100Z,24.52
2017-08-01T13:31:52.183Z,24.67
2017-08-01T13:34:21.252Z,24.84
2017-08-01T13:36:50.295Z,24.88
2017-08-01T13:39:19.372Z,24.81
2017-08-01T13:41:48.613Z,24.41
2017-08-01T13:44:17.683Z,24.09
2017-08-01T13:46:46.764Z,23.86
2017-08-01T13:49:15.808Z,23.74
2017-08-01T13:51:44.897Z,23.71
2017-08-01T13:54:13.963Z,23.82
2017-08-01T13:56:43.004Z,23.91
2017-08-01T13:59:12.079Z,23.97
2017-08-01T14:01:41.174Z,23.82
2017-08-01T14:04:10.300Z,23.73
2017-08-01T14:06:39.340Z,23.76
2017-08-01T14:09:08.425Z,23.75
2017-08-01T14:11:37.467Z,23.82
2017-08-01T14:14:06.515Z,23.86
2017-08-01T14:16:35.604Z,23.89
2017-08-01T14:19:04.708Z,23.93
2017-08-01T14:21:33.752Z,23.94
2017-08-01T14:24:02.827Z,23.96
2017-08-01T14:26:31.883Z,23.92
2017-08-01T14:29:00.944Z,23.83
2017-08-01T14:31:30.035Z,23.83
2017-08-01T14:33:59.079Z,23.80
2017-08-01T14:36:28.172Z,23.90
2017-08-01T14:38:57.211Z,23.98
2017-08-01T14:41:26.280Z,24.04
2017-08-01T14:43:55.356Z,24.05
2017-08-01T14:46:24.427Z,24.08
2017-08-01T14:48:53.502Z,24.03
2017-08-01T14:51:22.544Z,24.02
2017-08-01T14:53:51.604Z,24.13
2017-08-01T14:56:20.648Z,24.25
2017-08-01T14:58:49.724Z,24.27
2017-08-01T15:01:18.794Z,24.42
2017-08-01T15:03:47.877Z,24.44
2017-08-01T15:06:16.937Z,24.49
2017-08-01T15:08:45.982Z,24.52
2017-08-01T15:11:15.065Z,24.61
2017-08-01T15:13:44.143Z,24.65
2017-08-01T15:16:13.195Z,24.76
2017-08-01T15:18:42.560Z,24.65
2017-08-01T15:21:11.647Z,24.64
2017-08-01T15:23:40.715Z,24.47
2017-08-01T15:26:09.791Z,24.40
2017-08-01T15:28:38.836Z,24.41
2017-08-01T15:31:07.908Z,24.43
2017-08-01T15:33:36.972Z,24.60
2017-08-01T15:36:06.021Z,24.68
2017-08-01T15:38:35.113Z,24.61
2017-08-01T15:41:04.179Z,24.46
2017-08-01T15:43:33.255Z,24.42
2017-08-01T15:46:02.316Z,24.59
2017-08-01T15:48:31.380Z,24.70
2017-08-01T15:51:00.473Z,24.80
2017-08-01T15:53:29.535Z,24.93
2017-08-01T15:55:58.613Z,24.86
2017-08-01T15:58:27.684Z,24.61
2017-08-01T16:00:56.739Z,24.52
2017-08-01T16:03:25.839Z,24.52
2017-08-01T16:05:54.906Z,24.48
2017-08-01T16:08:23.964Z,24.49
2017-08-01T16:10:53.010Z,24.32
2017-08-01T16:13:22.076Z,24.26
2017-08-01T16:15:51.147Z,24.27
2017-08-01T16:18:20.212Z,24.27
2017-08-01T16:20:49.286Z,24.32
2017-08-01T16:23:18.332Z,24.35
2017-08-01T16:25:47.387Z,24.34
2017-08-01T16:28:16.484Z,24.32
2017-08-01T16:30:45.534Z,24.31
2017-08-01T16:33:14.612Z,24.31
2017-08-01T16:35:43.660Z,24.33
2017-08-01T16:38:12.724Z,24.30
2017-08-01T16:40:41.820Z,24.19
2017-08-01T16:43:10.881Z,24.11
2017-08-01T16:45:39.975Z,24.04
2017-08-01T16:48:09.039Z,23.96
2017-08-01T16:50:38.119Z,23.86
2017-08-01T16:53:07.216Z,23.78
2017-08-01T16:55:36.284Z,23.71
2017-08-01T16:58:05.386Z,23.70
2017-08-01T17:00:34.460Z,23.63
2017-08-01T17:03:03.586Z,23.67
2017-08-01T17:05:32.656Z,23.62
2017-08-01T17:08:01.752Z,23.58
2017-08-01T17:10:30.820Z,23.47
2017-08-01T17:12:59.928Z,23.46
2017-08-01T17:15:29.019Z,23.52
2017-08-01T17:17:58.090Z,23.64
2017-08-01T17:20:27.187Z,23.65
2017-08-01T17:22:56.213Z,23.58
2017-08-01T17:25:25.410Z,23.45
2017-08-01T17:27:54.484Z,23.46
2017-08-01T17:30:23.591Z,23.41
2017-08-01T17:32:52.656Z,23.48
2017-08-01T17:35:21.759Z,23.49
2017-08-01T17:37:51.263Z,23.44
2017-08-01T17:40:20.312Z,23.39
2017-08-01T17:42:49.364Z,23.35
2017-08-01T17:45:18.453Z,23.33
2017-08-01T17:47:47.512Z,23.28
2017-08-01T17:50:16.596Z,23.31
2017-08-01T17:52:45.657Z,23.26
2017-08-01T17:55:14.748Z,23.21
2017-08-01T17:57:43.891Z,23.20
2017-08-01T18:00:13.033Z,23.18
2017-08-01T18:02:42.185Z,23.13
2017-08-01T18:05:11.269Z,23.08
2017-08-01T18:07:40.312Z,23.03
2017-08-01T18:10:09.405Z,22.92
2017-08-01T18:12:38.487Z,22.82
2017-08-01T18:15:07.566Z,22.73
2017-08-01T18:17:36.690Z,22.68
2017-08-01T18:20:05.909Z,22.68
2017-08-01T18:22:35.847Z,22.69
2017-08-01T18:25:04.908Z,22.74
2017-08-01T18:27:34.015Z,22.63
2017-08-01T18:30:03.135Z,22.61
2017-08-01T18:32:32.226Z,22.55
2017-08-01T18:35:01.296Z,22.49
2017-08-01T18:37:30.376Z,22.41
2017-08-01T18:39:59.692Z,22.32
2017-08-01T18:42:28.797Z,22.26
2017-08-01T18:44:57.876Z,22.26
2017-08-01T18:47:27.191Z,22.26
2017-08-01T18:49:56.485Z,22.19
2017-08-01T18:52:25.561Z,22.14
2017-08-01T18:54:54.645Z,22.12
2017-08-01T18:57:24.029Z,22.12
2017-08-01T18:59:53.443Z,22.13
2017-08-01T19:02:22.533Z,22.08
2017-08-01T19:04:51.678Z,22.11
2017-08-01T19:07:20.748Z,22.03
2017-08-01T19:09:49.839Z,21.97
2017-08-01T19:12:19.036Z,21.87
2017-08-01T19:14:48.415Z,21.92
2017-08-01T19:17:17.779Z,21.96
2017-08-01T19:19:46.870Z,21.93
2017-08-01T19:22:16.266Z,21.86
2017-08-01T19:24:45.613Z,21.91
2017-08-01T19:27:14.697Z,21.91
2017-08-01T19:29:43.765Z,21.83
2017-08-01T19:32:12.956Z,21.74
2017-08-01T19:34:42.366Z,21.73
2017-08-01T19:37:11.764Z,21.77
2017-08-01T19:39:40.929Z,21.73
2017-08-01T19:42:10.308Z,21.61
2017-08-01T19:44:39.726Z,21.70
2017-08-01T19:47:08.870Z,21.71
2017-08-01T19:49:38.259Z,21.64
2017-08-01T19:52:07.625Z,21.66
2017-08-01T19:54:36.795Z,21.60
2017-08-01T19:57:05.945Z,21.62
2017-08-01T19:59:35.020Z,21.63
2017-08-01T20:02:04.496Z,21.56
2017-08-01T20:04:33.804Z,21.56
2017-08-01T20:07:03.265Z,21.58
2017-08-01T20:09:32.603Z,21.58
2017-08-01T20:12:01.707Z,21.57
2017-08-01T20:14:31.103Z,21.53
2017-08-01T20:17:00.472Z,21.44
2017-08-01T20:19:29.549Z,21.47
2017-08-01T20:21:58.684Z,21.49
2017-08-01T20:24:27.903Z,21.48
2017-08-01T20:26:57.185Z,21.46
2017-08-01T20:29:26.331Z,21.46
2017-08-01T20:31:55.446Z,21.44
2017-08-01T20:34:24.533Z,21.48
2017-08-01T20:36:53.620Z,21.48
2017-08-01T20:39:22.681Z,21.42
2017-08-01T20:41:51.763Z,21.37
2017-08-01T20:44:20.855Z,21.34
2017-08-01T20:46:49.949Z,21.33
2017-08-01T20:49:19.014Z,21.37
2017-08-01T20:51:48.073Z,21.17
2017-08-01T20:54:17.182Z,20.99
2017-08-01T20:56:46.307Z,20.95
2017-08-01T20:59:16.281Z,21.03
2017-08-01T21:01:46.117Z,21.10
2017-08-01T21:04:15.188Z,21.13
2017-08-01T21:06:45.107Z,21.11
2017-08-01T21:09:14.162Z,21.12
2017-08-01T21:11:43.611Z,21.06
2017-08-01T21:14:13.454Z,21.04
2017-08-01T21:16:44.277Z,21.01
2017-08-01T21:19:14.184Z,21.00
2017-08-01T21:21:44.189Z,21.02
2017-08-01T21:24:13.247Z,21.05
2017-08-01T21:26:42.388Z,21.07
2017-08-01T21:29:12.283Z,21.06
2017-08-01T21:31:41.341Z,21.01
2017-08-01T21:34:10.445Z,21.01
2017-08-01T21:36:39.497Z,20.99
2017-08-01T21:39:08.589Z,20.93
2017-08-01T21:41:37.631Z,20.86
2017-08-01T21:44:06.711Z,20.79
2017-08-01T21:46:35.771Z,20.69
2017-08-01T21:49:05.619Z,20.68
2017-08-01T21:51:34.716Z,20.70
2017-08-01T21:54:03.816Z,20.70
2017-08-01T21:56:33.097Z,20.63
2017-08-01T21:59:02.184Z,20.52
2017-08-01T22:01:32.000Z,20.47
2017-08-01T22:04:01.059Z,20.47
2017-08-01T22:06:30.927Z,20.47
2017-08-01T22:08:59.992Z,20.44
2017-08-01T22:11:29.051Z,20.34
2017-08-01T22:13:58.204Z,20.22
2017-08-01T22:16:27.284Z,20.15
2017-08-01T22:18:56.375Z,20.11
2017-08-01T22:21:27.071Z,20.09
2017-08-01T22:23:56.248Z,20.06
2017-08-01T22:26:25.297Z,20.05
2017-08-01T22:28:54.343Z,20.07
2017-08-01T22:31:23.426Z,20.08
2017-08-01T22:33:52.495Z,20.09
2017-08-01T22:36:21.615Z,20.11
2017-08-01T22:38:50.697Z,20.15
2017-08-01T22:41:19.752Z,20.18
2017-08-01T22:43:48.842Z,20.20
2017-08-01T22:46:17.899Z,20.18
2017-08-01T22:48:46.982Z,20.15
2017-08-01T22:51:16.095Z,20.12
2017-08-01T22:53:45.185Z,20.10
2017-08-01T22:56:14.273Z,20.08
2017-08-01T22:58:43.340Z,20.08
2017-08-01T23:01:12.452Z,20.08
2017-08-01T23:03:41.519Z,20.06
2017-08-01T23:06:10.587Z,20.05
2017-08-01T23:08:40.671Z,20.03
2017-08-01T23:11:09.746Z,20.00
2017-08-01T23:13:38.820Z,19.99
2017-08-01T23:16:07.878Z,19.98
2017-08-01T23:18:36.929Z,19.96
2017-08-01T23:21:06.020Z,19.96
2017-08-01T23:23:35.082Z,19.97
2017-08-01T23:26:04.168Z,19.97
2017-08-01T23:28:33.218Z,19.93
2017-08-01T23:31:02.328Z,19.89
2017-08-01T23:33:31.353Z,19.84
2017-08-01T23:36:00.432Z,19.80
2017-08-01T23:38:29.511Z,19.79
2017-08-01T23:40:58.573Z,19.77
2017-08-01T23:43:27.632Z,19.75
2017-08-01T23:45:56.691Z,19.74
2017-08-01T23:48:25.780Z,19.68
2017-08-01T23:50:54.825Z,19.68
2017-08-01T23:53:23.891Z,19.67
2017-08-01T23:55:52.992Z,19.63
2017-08-01T23:58:22.047Z,19.61
